createdAt,value
2023-02-19T00:01:34.529Z,7.41
2023-02-19T00:04:13.614Z,7.41
2023-02-19T00:06:45.652Z,6.08
2023-02-19T00:09:18.440Z,6.27
2023-02-19T00:11:48.409Z,7.41
2023-02-19T00:14:21.495Z,7.03
2023-02-19T00:16:51.317Z,6.08
2023-02-19T00:19:21.662Z,6.27
2023-02-19T00:21:53.217Z,6.84
2023-02-19T00:24:23.005Z,8.93
2023-02-19T00:26:52.791Z,6.46
2023-02-19T00:29:22.721Z,6.84
2023-02-19T00:31:52.573Z,7.22
2023-02-19T00:34:22.439Z,6.08
2023-02-19T00:36:52.234Z,6.27
2023-02-19T00:39:22.145Z,6.46
2023-02-19T00:41:51.998Z,8.17
2023-02-19T00:44:21.806Z,7.03
2023-02-19T00:46:51.629Z,7.41
2023-02-19T00:49:23.555Z,6.65
2023-02-19T00:51:53.886Z,6.84
2023-02-19T00:54:25.016Z,6.27
2023-02-19T00:56:53.981Z,6.08
2023-02-19T00:59:23.741Z,7.41
2023-02-19T01:01:53.536Z,6.46
2023-02-19T01:04:23.358Z,6.84
2023-02-19T01:06:52.005Z,6.65
2023-02-19T01:09:20.488Z,7.98
2023-02-19T01:11:48.854Z,7.22
2023-02-19T01:14:17.314Z,7.22
2023-02-19T01:16:45.862Z,8.17
2023-02-19T01:19:14.165Z,7.22
2023-02-19T01:21:42.690Z,7.60
2023-02-19T01:24:11.307Z,8.36
2023-02-19T01:26:40.627Z,7.41
2023-02-19T01:29:08.072Z,8.17
2023-02-19T01:31:36.756Z,7.60
2023-02-19T01:34:05.214Z,8.36
2023-02-19T01:36:34.756Z,7.79
2023-02-19T01:39:04.974Z,8.17
2023-02-19T01:41:38.803Z,7.79
2023-02-19T01:44:28.417Z,7.79
2023-02-19T01:46:58.759Z,8.17
2023-02-19T01:49:35.707Z,8.55
2023-02-19T01:52:34.361Z,8.74
2023-02-19T01:55:08.688Z,9.12
2023-02-19T01:57:47.666Z,8.36
2023-02-19T02:00:17.702Z,9.12
2023-02-19T02:02:53.058Z,7.79
2023-02-19T02:05:57.094Z,8.17
2023-02-19T02:08:47.300Z,8.74
2023-02-19T02:11:14.827Z,8.93
2023-02-19T02:13:43.596Z,7.79
2023-02-19T02:16:41.590Z,7.79
2023-02-19T02:19:52.636Z,7.41
2023-02-19T02:22:56.215Z,8.17
2023-02-19T02:25:41.393Z,8.36
2023-02-19T02:28:21.155Z,7.98
2023-02-19T02:30:58.176Z,8.74
2023-02-19T02:33:43.410Z,8.36
2023-02-19T02:36:20.902Z,8.36
2023-02-19T02:38:54.182Z,8.17
2023-02-19T02:41:25.529Z,8.36
2023-02-19T02:43:55.266Z,7.79
2023-02-19T02:46:37.067Z,8.36
2023-02-19T02:49:23.850Z,7.41
2023-02-19T02:51:56.407Z,8.55
2023-02-19T02:54:53.290Z,7.79
2023-02-19T02:57:23.370Z,8.36
2023-02-19T02:59:53.570Z,6.65
2023-02-19T03:02:28.711Z,7.22
2023-02-19T03:05:31.164Z,6.65
2023-02-19T03:08:36.006Z,6.46
2023-02-19T03:11:28.244Z,7.41
2023-02-19T03:14:44.226Z,6.27
2023-02-19T03:17:43.096Z,6.08
2023-02-19T03:20:19.662Z,6.27
2023-02-19T03:22:52.567Z,6.84
2023-02-19T03:25:49.406Z,6.65
2023-02-19T03:28:44.706Z,5.51
2023-02-19T03:31:21.169Z,7.60
2023-02-19T03:34:00.122Z,5.51
2023-02-19T03:36:41.629Z,6.08
2023-02-19T03:39:17.657Z,5.13
2023-02-19T03:42:17.573Z,4.37
2023-02-19T03:45:18.740Z,4.37
2023-02-19T03:48:18.490Z,4.37
2023-02-19T03:51:01.049Z,4.94
2023-02-19T03:54:06.552Z,4.75
2023-02-19T03:56:43.435Z,4.94
2023-02-19T03:59:27.741Z,3.99
2023-02-19T04:02:09.897Z,3.99
2023-02-19T04:04:49.751Z,4.37
2023-02-19T04:07:20.730Z,4.18
2023-02-19T04:09:52.108Z,4.18
2023-02-19T04:12:21.266Z,3.80
2023-02-19T04:15:10.144Z,4.18
2023-02-19T04:17:48.419Z,4.18
2023-02-19T04:20:20.434Z,2.85
2023-02-19T04:22:50.255Z,2.47
2023-02-19T04:25:21.677Z,2.66
2023-02-19T04:27:51.936Z,2.66
2023-02-19T04:30:22.523Z,2.28
2023-02-19T04:32:52.263Z,3.04
2023-02-19T04:35:20.879Z,3.42
2023-02-19T04:37:49.235Z,3.23
2023-02-19T04:40:17.634Z,2.66
2023-02-19T04:42:46.035Z,3.42
2023-02-19T04:45:14.362Z,3.23
2023-02-19T04:47:42.937Z,3.61
2023-02-19T04:50:11.366Z,3.42
2023-02-19T04:52:39.717Z,3.23
2023-02-19T04:55:09.449Z,3.80
2023-02-19T04:57:36.532Z,3.42
2023-02-19T05:00:06.112Z,3.23
2023-02-19T05:02:33.373Z,3.04
2023-02-19T05:05:01.941Z,3.99
2023-02-19T05:07:30.207Z,3.42
2023-02-19T05:09:59.742Z,3.80
2023-02-19T05:12:27.116Z,3.42
2023-02-19T05:14:55.435Z,3.80
2023-02-19T05:17:23.902Z,3.99
2023-02-19T05:19:52.445Z,3.23
2023-02-19T05:22:20.817Z,3.80
2023-02-19T05:24:49.069Z,3.23
2023-02-19T05:27:17.485Z,3.99
2023-02-19T05:29:46.251Z,2.66
2023-02-19T05:32:14.361Z,3.99
2023-02-19T05:34:42.866Z,3.42
2023-02-19T05:37:11.274Z,3.61
2023-02-19T05:39:39.705Z,3.61
2023-02-19T05:42:12.491Z,4.56
2023-02-19T05:44:43.419Z,3.04
2023-02-19T05:47:13.236Z,3.99
2023-02-19T05:49:43.059Z,4.37
2023-02-19T05:52:12.894Z,3.99
2023-02-19T05:54:42.653Z,3.99
2023-02-19T05:57:12.403Z,3.99
2023-02-19T05:59:42.220Z,4.37
2023-02-19T06:02:12.108Z,4.37
2023-02-19T06:04:41.921Z,9.69
2023-02-19T06:07:11.621Z,5.13
2023-02-19T06:09:41.345Z,5.32
2023-02-19T06:12:16.599Z,5.13
2023-02-19T06:14:46.320Z,4.75
2023-02-19T06:17:16.706Z,4.18
2023-02-19T06:19:46.490Z,3.99
2023-02-19T06:22:17.052Z,4.75
2023-02-19T06:24:48.298Z,3.80
2023-02-19T06:27:18.523Z,4.75
2023-02-19T06:29:48.228Z,6.08
2023-02-19T06:32:18.553Z,5.13
2023-02-19T06:34:48.478Z,4.94
2023-02-19T06:37:18.311Z,6.46
2023-02-19T06:39:48.189Z,4.56
2023-02-19T06:42:18.780Z,4.37
2023-02-19T06:44:49.174Z,4.37
2023-02-19T06:47:18.932Z,4.37
2023-02-19T06:49:48.734Z,3.23
2023-02-19T06:52:18.532Z,2.85
2023-02-19T06:54:48.473Z,3.61
2023-02-19T06:57:19.214Z,3.61
2023-02-19T06:59:48.942Z,3.42
2023-02-19T07:02:18.824Z,3.99
2023-02-19T07:04:48.552Z,4.94
2023-02-19T07:07:18.248Z,4.37
2023-02-19T07:09:48.185Z,3.61
2023-02-19T07:12:18.108Z,4.75
2023-02-19T07:14:48.255Z,3.80
2023-02-19T07:17:17.989Z,3.61
2023-02-19T07:19:47.892Z,3.61
2023-02-19T07:22:17.801Z,3.61
2023-02-19T07:24:48.039Z,4.37
2023-02-19T07:27:18.122Z,3.80
2023-02-19T07:29:47.901Z,4.37
2023-02-19T07:32:17.857Z,3.80
2023-02-19T07:34:47.663Z,4.37
2023-02-19T07:37:17.576Z,4.75
2023-02-19T07:39:47.397Z,4.94
2023-02-19T07:42:17.435Z,4.37
2023-02-19T07:44:47.190Z,4.56
2023-02-19T07:47:16.918Z,3.99
2023-02-19T07:49:46.730Z,3.99
2023-02-19T07:52:15.154Z,4.37
2023-02-19T07:54:43.590Z,5.13
2023-02-19T07:57:12.370Z,4.56
2023-02-19T07:59:41.082Z,4.18
2023-02-19T08:02:39.035Z,3.99
2023-02-19T08:05:08.899Z,3.61
2023-02-19T08:07:38.734Z,4.37
2023-02-19T08:10:27.681Z,4.18
2023-02-19T08:13:17.955Z,4.56
2023-02-19T08:16:10.909Z,3.42
2023-02-19T08:18:44.714Z,3.80
2023-02-19T08:21:18.162Z,3.04
2023-02-19T08:23:50.852Z,2.85
2023-02-19T08:26:20.694Z,3.42
2023-02-19T08:28:50.592Z,2.85
2023-02-19T08:31:20.435Z,2.47
2023-02-19T08:33:50.456Z,3.23
2023-02-19T08:36:20.400Z,2.47
2023-02-19T08:38:50.475Z,3.99
2023-02-19T08:41:20.847Z,3.04
2023-02-19T08:43:50.762Z,2.85
2023-02-19T08:46:21.287Z,3.23
2023-02-19T08:48:52.185Z,2.47
2023-02-19T08:51:21.950Z,3.42
2023-02-19T08:53:51.651Z,2.85
2023-02-19T08:56:21.482Z,3.23
2023-02-19T08:58:51.320Z,3.04
2023-02-19T09:01:21.163Z,3.23
2023-02-19T09:03:51.005Z,3.04
2023-02-19T09:06:21.621Z,3.42
2023-02-19T09:08:51.458Z,2.85
2023-02-19T09:11:21.264Z,3.04
2023-02-19T09:13:49.629Z,3.42
2023-02-19T09:16:18.100Z,3.80
2023-02-19T09:18:46.659Z,2.85
2023-02-19T09:21:14.939Z,2.85
2023-02-19T09:23:43.380Z,2.47
2023-02-19T09:26:14.012Z,2.66
2023-02-19T09:28:43.472Z,2.85
2023-02-19T09:31:15.706Z,2.66
2023-02-19T09:33:48.460Z,2.28
2023-02-19T09:36:18.836Z,3.23
2023-02-19T09:38:48.543Z,2.85
2023-02-19T09:41:31.891Z,3.23
2023-02-19T09:44:05.566Z,3.04
2023-02-19T09:46:43.387Z,3.04
2023-02-19T09:49:19.721Z,2.47
2023-02-19T09:52:33.428Z,2.66
2023-02-19T09:55:16.487Z,3.04
2023-02-19T09:57:48.596Z,2.85
2023-02-19T10:00:27.016Z,3.04
2023-02-19T10:03:11.070Z,2.47
2023-02-19T10:05:42.295Z,2.09
2023-02-19T10:08:21.647Z,2.66
2023-02-19T10:10:53.336Z,1.90
2023-02-19T10:13:36.092Z,2.66
2023-02-19T10:16:14.820Z,2.28
2023-02-19T10:18:47.267Z,1.90
2023-02-19T10:21:28.083Z,2.85
2023-02-19T10:24:03.020Z,2.66
2023-02-19T10:26:36.556Z,3.04
2023-02-19T10:29:06.987Z,2.28
2023-02-19T10:31:36.931Z,2.47
2023-02-19T10:34:22.162Z,2.47
2023-02-19T10:36:53.267Z,2.85
2023-02-19T10:39:22.960Z,2.47
2023-02-19T10:41:56.446Z,2.09
2023-02-19T10:44:44.069Z,2.66
2023-02-19T10:47:22.505Z,1.71
2023-02-19T10:49:58.140Z,2.28
2023-02-19T10:52:35.376Z,2.47
2023-02-19T10:55:38.517Z,2.47
2023-02-19T10:58:27.642Z,1.90
2023-02-19T11:01:16.850Z,2.09
2023-02-19T11:03:52.679Z,1.90
2023-02-19T11:06:27.035Z,2.28
2023-02-19T11:09:01.135Z,1.90
2023-02-19T11:11:37.602Z,2.28
2023-02-19T11:14:24.443Z,2.47
2023-02-19T11:16:58.366Z,1.90
2023-02-19T11:19:48.177Z,3.04
2023-02-19T11:22:30.958Z,2.09
2023-02-19T11:25:12.771Z,2.28
2023-02-19T11:28:21.738Z,2.28
2023-02-19T11:30:51.530Z,2.66
2023-02-19T11:33:22.424Z,2.47
2023-02-19T11:36:23.226Z,1.71
2023-02-19T11:38:55.519Z,2.09
2023-02-19T11:41:56.663Z,1.90
2023-02-19T11:44:48.588Z,1.90
2023-02-19T11:47:48.751Z,1.90
2023-02-19T11:50:42.925Z,1.90
2023-02-19T11:53:33.700Z,1.71
2023-02-19T11:56:34.175Z,2.09
2023-02-19T11:59:28.571Z,1.71
2023-02-19T12:02:21.080Z,2.47
2023-02-19T12:05:03.212Z,2.09
2023-02-19T12:08:10.677Z,1.71
2023-02-19T12:11:20.617Z,1.71
2023-02-19T12:13:59.228Z,2.09
2023-02-19T12:16:41.390Z,1.90
2023-02-19T12:19:39.406Z,1.90
2023-02-19T12:22:32.433Z,2.28
2023-02-19T12:25:43.812Z,1.52
2023-02-19T12:29:01.674Z,2.09
2023-02-19T12:32:06.258Z,1.71
2023-02-19T12:35:24.627Z,2.09
2023-02-19T12:38:23.345Z,2.09
2023-02-19T12:41:34.723Z,1.90
2023-02-19T12:44:22.821Z,1.90
2023-02-19T12:46:59.549Z,1.33
2023-02-19T12:50:21.892Z,1.52
2023-02-19T12:53:34.309Z,1.71
2023-02-19T12:56:39.136Z,1.71
2023-02-19T12:59:15.814Z,1.52
2023-02-19T13:02:20.075Z,1.71
2023-02-19T13:05:02.764Z,2.09
2023-02-19T13:07:49.197Z,1.90
2023-02-19T13:10:41.819Z,3.04
2023-02-19T13:13:26.730Z,1.71
2023-02-19T13:16:09.817Z,1.52
2023-02-19T13:18:52.296Z,1.90
2023-02-19T13:21:45.676Z,1.90
2023-02-19T13:24:26.537Z,1.90
2023-02-19T13:27:14.549Z,2.47
2023-02-19T13:30:02.627Z,2.47
2023-02-19T13:32:50.938Z,1.52
2023-02-19T13:35:51.858Z,1.90
2023-02-19T13:38:22.004Z,1.90
2023-02-19T13:41:00.454Z,2.28
2023-02-19T13:43:35.363Z,1.71
2023-02-19T13:46:12.519Z,1.33
2023-02-19T13:48:44.417Z,1.33
2023-02-19T13:51:17.193Z,1.52
2023-02-19T13:53:48.083Z,1.90
2023-02-19T13:56:30.102Z,2.09
2023-02-19T13:59:02.622Z,1.90
2023-02-19T14:01:53.471Z,2.28
2023-02-19T14:04:47.616Z,1.90
2023-02-19T14:07:17.258Z,2.09
2023-02-19T14:09:48.252Z,2.09
2023-02-19T14:12:22.720Z,1.71
2023-02-19T14:14:56.622Z,2.09
2023-02-19T14:17:45.950Z,1.90
2023-02-19T14:20:15.956Z,1.71
2023-02-19T14:22:45.679Z,1.71
2023-02-19T14:25:27.891Z,1.52
2023-02-19T14:28:09.872Z,1.90
2023-02-19T14:31:17.468Z,1.90
2023-02-19T14:34:26.912Z,1.90
2023-02-19T14:37:01.705Z,1.90
2023-02-19T14:39:38.741Z,2.09
2023-02-19T14:42:33.660Z,1.52
2023-02-19T14:45:07.882Z,1.52
2023-02-19T14:47:37.921Z,2.28
2023-02-19T14:50:29.617Z,1.90
2023-02-19T14:53:04.784Z,2.47
2023-02-19T14:55:40.369Z,1.71
2023-02-19T14:58:30.834Z,1.71
2023-02-19T15:01:00.614Z,1.52
2023-02-19T15:03:34.157Z,1.90
2023-02-19T15:06:16.375Z,2.28
2023-02-19T15:08:58.343Z,2.09
2023-02-19T15:11:32.467Z,2.66
2023-02-19T15:14:07.616Z,1.71
2023-02-19T15:16:37.709Z,2.09
2023-02-19T15:19:12.658Z,1.90
2023-02-19T15:21:49.749Z,2.28
2023-02-19T15:24:19.928Z,1.71
2023-02-19T15:26:54.595Z,1.71
2023-02-19T15:29:28.369Z,1.52
2023-02-19T15:32:01.539Z,1.90
2023-02-19T15:34:33.091Z,1.71
2023-02-19T15:37:08.046Z,1.71
2023-02-19T15:39:47.250Z,1.52
2023-02-19T15:42:26.538Z,1.71
2023-02-19T15:45:18.780Z,1.71
2023-02-19T15:47:57.809Z,1.90
2023-02-19T15:50:34.172Z,1.71
2023-02-19T15:53:26.263Z,1.71
2023-02-19T15:56:32.456Z,1.52
2023-02-19T15:59:27.974Z,1.90
2023-02-19T16:02:00.643Z,1.90
2023-02-19T16:04:30.854Z,1.14
2023-02-19T16:07:03.689Z,1.90
2023-02-19T16:09:37.030Z,1.90
2023-02-19T16:12:25.384Z,2.28
2023-02-19T16:14:55.168Z,1.71
2023-02-19T16:17:28.183Z,1.71
2023-02-19T16:20:03.322Z,1.90
2023-02-19T16:22:42.613Z,1.14
2023-02-19T16:25:31.374Z,1.33
2023-02-19T16:28:24.742Z,1.90
2023-02-19T16:31:02.113Z,1.90
2023-02-19T16:33:41.403Z,1.90
2023-02-19T16:36:34.058Z,1.71
2023-02-19T16:39:09.717Z,1.71
2023-02-19T16:41:39.348Z,2.28
2023-02-19T16:44:21.542Z,2.28
2023-02-19T16:47:02.401Z,1.52
2023-02-19T16:49:32.671Z,1.90
2023-02-19T16:52:04.590Z,1.52
2023-02-19T16:54:34.687Z,1.71
2023-02-19T16:57:04.578Z,1.90
2023-02-19T16:59:34.426Z,2.09
2023-02-19T17:02:09.063Z,2.09
2023-02-19T17:04:38.813Z,2.47
2023-02-19T17:07:15.455Z,3.42
2023-02-19T17:09:45.958Z,2.47
2023-02-19T17:12:18.170Z,2.47
2023-02-19T17:14:47.128Z,2.09
2023-02-19T17:17:15.573Z,1.90
2023-02-19T17:19:44.133Z,2.28
2023-02-19T17:22:16.856Z,1.33
2023-02-19T17:24:46.016Z,2.28
2023-02-19T17:27:16.004Z,2.09
2023-02-19T17:29:45.813Z,1.90
2023-02-19T17:32:15.876Z,2.66
2023-02-19T17:34:49.454Z,3.04
2023-02-19T17:37:19.261Z,3.61
2023-02-19T17:39:49.339Z,3.61
2023-02-19T17:42:20.076Z,3.04
2023-02-19T17:44:51.854Z,2.28
2023-02-19T17:47:21.757Z,2.09
2023-02-19T17:49:51.603Z,2.66
2023-02-19T17:52:21.366Z,2.85
2023-02-19T17:54:51.173Z,2.66
2023-02-19T17:57:20.949Z,2.47
2023-02-19T17:59:50.736Z,2.66
2023-02-19T18:02:20.484Z,3.23
2023-02-19T18:04:50.256Z,3.99
2023-02-19T18:07:20.056Z,3.61
2023-02-19T18:09:49.933Z,3.61
2023-02-19T18:12:19.986Z,3.23
2023-02-19T18:14:49.755Z,3.04
2023-02-19T18:17:19.500Z,2.28
2023-02-19T18:19:49.416Z,3.04
2023-02-19T18:22:19.427Z,3.80
2023-02-19T18:24:53.033Z,4.56
2023-02-19T18:27:23.684Z,4.37
2023-02-19T18:29:55.829Z,4.75
2023-02-19T18:32:26.182Z,4.94
2023-02-19T18:34:59.222Z,4.37
2023-02-19T18:37:33.788Z,4.56
2023-02-19T18:40:05.294Z,4.56
2023-02-19T18:42:35.442Z,4.18
2023-02-19T18:45:05.357Z,4.37
2023-02-19T18:47:35.155Z,3.61
2023-02-19T18:50:08.253Z,3.80
2023-02-19T18:52:38.014Z,2.85
2023-02-19T18:55:10.538Z,3.04
2023-02-19T18:57:40.426Z,2.85
2023-02-19T19:00:23.532Z,3.42
2023-02-19T19:02:51.625Z,5.89
2023-02-19T19:05:23.170Z,4.37
2023-02-19T19:07:55.405Z,4.56
2023-02-19T19:10:25.782Z,3.99
2023-02-19T19:12:55.712Z,3.80
2023-02-19T19:15:26.107Z,3.23
2023-02-19T19:17:55.949Z,3.04
2023-02-19T19:20:25.897Z,3.23
2023-02-19T19:22:55.683Z,3.04
2023-02-19T19:25:25.537Z,3.23
2023-02-19T19:27:56.236Z,5.70
2023-02-19T19:30:26.572Z,8.36
2023-02-19T19:32:57.432Z,3.61
2023-02-19T19:35:28.654Z,3.61
2023-02-19T19:37:58.302Z,7.41
2023-02-19T19:40:28.182Z,4.56
2023-02-19T19:42:57.932Z,4.56
2023-02-19T19:45:27.832Z,5.32
2023-02-19T19:47:57.715Z,3.61
2023-02-19T19:50:27.889Z,3.61
2023-02-19T19:52:57.764Z,4.18
2023-02-19T19:55:27.596Z,15.77
2023-02-19T19:57:57.306Z,13.11
2023-02-19T20:00:27.400Z,8.93
2023-02-19T20:02:57.878Z,4.75
2023-02-19T20:05:27.732Z,4.18
2023-02-19T20:07:57.519Z,3.42
2023-02-19T20:10:27.256Z,3.99
2023-02-19T20:12:55.691Z,3.80
2023-02-19T20:15:24.240Z,3.42
2023-02-19T20:17:52.612Z,3.04
2023-02-19T20:20:22.636Z,3.23
2023-02-19T20:22:53.503Z,3.99
2023-02-19T20:25:23.728Z,6.65
2023-02-19T20:27:52.635Z,4.75
2023-02-19T20:30:23.869Z,3.23
2023-02-19T20:32:53.766Z,3.99
2023-02-19T20:35:26.845Z,3.61
2023-02-19T20:37:56.795Z,3.23
2023-02-19T20:40:30.377Z,3.80
2023-02-19T20:43:01.027Z,2.85
2023-02-19T20:45:31.116Z,3.80
2023-02-19T20:48:01.127Z,2.85
2023-02-19T20:50:31.055Z,4.18
2023-02-19T20:53:01.152Z,3.80
2023-02-19T20:55:32.063Z,3.23
2023-02-19T20:58:01.888Z,3.80
2023-02-19T21:00:31.652Z,3.23
2023-02-19T21:03:01.553Z,3.42
2023-02-19T21:05:31.290Z,3.99
2023-02-19T21:08:01.055Z,3.80
2023-02-19T21:10:31.222Z,3.04
2023-02-19T21:13:00.988Z,3.23
2023-02-19T21:15:30.769Z,3.42
2023-02-19T21:18:00.518Z,3.80
2023-02-19T21:20:30.606Z,3.80
2023-02-19T21:23:01.183Z,3.42
2023-02-19T21:25:33.084Z,4.37
2023-02-19T21:28:02.793Z,3.80
2023-02-19T21:30:32.607Z,4.18
2023-02-19T21:33:00.987Z,3.04
2023-02-19T21:35:29.464Z,4.18
2023-02-19T21:37:58.019Z,3.23
2023-02-19T21:40:28.067Z,3.42
2023-02-19T21:42:58.260Z,3.61
2023-02-19T21:45:26.364Z,3.80
2023-02-19T21:47:55.166Z,3.61
2023-02-19T21:50:23.405Z,3.61
2023-02-19T21:52:51.434Z,3.23
2023-02-19T21:55:19.989Z,4.18
2023-02-19T21:57:48.322Z,4.18
2023-02-19T22:00:17.334Z,3.42
2023-02-19T22:02:45.228Z,3.99
2023-02-19T22:05:13.676Z,3.61
2023-02-19T22:07:42.099Z,4.18
2023-02-19T22:10:10.863Z,3.99
2023-02-19T22:12:38.942Z,3.80
2023-02-19T22:15:08.004Z,3.61
2023-02-19T22:17:35.815Z,3.99
2023-02-19T22:20:06.130Z,3.61
2023-02-19T22:22:35.871Z,3.80
2023-02-19T22:25:06.462Z,3.61
2023-02-19T22:27:36.231Z,3.80
2023-02-19T22:30:07.340Z,3.04
2023-02-19T22:32:35.045Z,3.80
2023-02-19T22:35:05.108Z,3.61
2023-02-19T22:37:34.882Z,3.42
2023-02-19T22:40:05.499Z,3.61
2023-02-19T22:42:36.139Z,3.80
2023-02-19T22:45:07.290Z,3.42
2023-02-19T22:47:37.041Z,3.61
2023-02-19T22:50:08.105Z,3.23
2023-02-19T22:52:37.886Z,4.18
2023-02-19T22:55:07.877Z,4.18
2023-02-19T22:57:37.649Z,3.99
2023-02-19T23:00:09.171Z,3.80
2023-02-19T23:02:38.856Z,4.37
2023-02-19T23:05:08.659Z,4.18
2023-02-19T23:07:38.464Z,3.80
2023-02-19T23:10:09.464Z,3.99
2023-02-19T23:12:41.137Z,3.99
2023-02-19T23:15:11.682Z,3.80
2023-02-19T23:17:41.658Z,4.56
2023-02-19T23:20:12.426Z,3.80
2023-02-19T23:22:42.131Z,3.80
2023-02-19T23:25:11.912Z,3.80
2023-02-19T23:27:41.921Z,4.94
2023-02-19T23:30:12.701Z,4.18
2023-02-19T23:32:43.300Z,4.18
2023-02-19T23:35:13.747Z,4.18
2023-02-19T23:37:43.440Z,4.56
2023-02-19T23:40:13.971Z,4.56
2023-02-19T23:42:43.684Z,3.99
2023-02-19T23:45:16.696Z,4.75
2023-02-19T23:47:46.470Z,4.75
2023-02-19T23:50:17.141Z,4.56
2023-02-19T23:52:46.932Z,4.18
2023-02-19T23:55:17.005Z,3.99
2023-02-19T23:57:46.822Z,5.32
